Time;durP1;ratioP1;P1;durP2;ratioP2;P2;SDS_P1;SDS_P2;PMS_P1;PMS_P2;Temp;Humidity;BMP_temperature;BMP_pressure;BME280_temperature;BME280_humidity;BME280_pressure;Samples;Min_cycle;Max_cycle;Signal;HPM_P1;HPM_P2
2023/07/06 00:00:28;;;;;;;9.88;6.82;;;;;;;21.73;66.17;94579.00;4208966;28;20048;-58
2023/07/06 00:02:30;;;;;;;15.95;6.70;;;;;;;21.76;66.29;94586.50;4208811;28;20070;-59
2023/07/06 00:04:31;;;;;;;7.47;6.30;;;;;;;21.79;66.12;94578.03;4209356;28;20051;-57
2023/07/06 00:06:33;;;;;;;8.50;6.40;;;;;;;21.82;66.23;94573.06;4209835;28;20102;-57
2023/07/06 00:08:37;;;;;;;8.63;6.60;;;;;;;21.85;65.97;94577.13;4206708;28;20056;-57
2023/07/06 00:10:40;;;;;;;8.93;6.90;;;;;;;21.88;66.14;94569.47;4199700;28;20126;-57
2023/07/06 00:12:43;;;;;;;8.57;6.28;;;;;;;21.92;66.21;94577.00;4208546;28;20048;-56
2023/07/06 00:14:45;;;;;;;10.30;7.07;;;;;;;21.95;66.19;94573.88;4210691;28;20044;-58
2023/07/06 00:16:47;;;;;;;8.70;6.25;;;;;;;21.97;66.41;94572.59;4208381;28;20047;-57
2023/07/06 00:18:50;;;;;;;7.90;6.75;;;;;;;21.94;66.32;94569.56;4209135;28;20079;-53
2023/07/06 00:20:51;;;;;;;7.20;6.50;;;;;;;21.95;66.20;94566.69;4209119;28;20535;-58
2023/07/06 00:22:54;;;;;;;8.00;6.13;;;;;;;21.96;66.51;94559.50;4209670;28;20043;-57
2023/07/06 00:24:57;;;;;;;11.77;7.18;;;;;;;21.97;66.49;94561.94;4209333;28;20052;-55
2023/07/06 00:26:59;;;;;;;9.50;6.75;;;;;;;21.97;66.58;94567.25;4208891;28;20487;-59
2023/07/06 00:29:01;;;;;;;8.02;6.50;;;;;;;21.96;66.87;94563.00;4209841;28;20051;-59
2023/07/06 00:31:10;;;;;;;10.52;7.47;;;;;;;21.94;66.69;94558.91;4209758;28;20564;-57
2023/07/06 00:33:13;;;;;;;7.90;7.00;;;;;;;21.94;66.68;94559.75;4209289;28;20048;-58
2023/07/06 00:35:15;;;;;;;10.68;6.40;;;;;;;21.98;66.69;94552.88;4210146;28;20136;-57
2023/07/06 00:37:17;;;;;;;7.72;6.80;;;;;;;22.02;66.40;94561.22;4209511;28;20052;-60
2023/07/06 00:39:19;;;;;;;8.48;6.45;;;;;;;22.04;66.08;94548.47;4212400;28;20052;-56
2023/07/06 00:41:20;;;;;;;9.25;7.03;;;;;;;21.98;66.78;94552.06;4209633;28;20044;-56
2023/07/06 00:43:24;;;;;;;9.90;6.72;;;;;;;21.98;67.01;94554.72;4212283;28;20075;-57
2023/07/06 00:45:26;;;;;;;8.93;7.07;;;;;;;21.99;66.90;94554.50;4213053;28;20059;-56
2023/07/06 00:47:34;;;;;;;8.23;6.40;;;;;;;22.02;66.34;94559.38;4211443;28;20044;-56
2023/07/06 00:49:42;;;;;;;9.90;6.60;;;;;;;22.01;66.58;94557.75;4212654;28;20048;-58
2023/07/06 00:51:44;;;;;;;7.70;6.90;;;;;;;22.01;66.86;94555.09;4210928;28;20052;-60
2023/07/06 00:53:51;;;;;;;8.57;7.38;;;;;;;21.98;66.73;94550.19;4212849;28;20478;-58
2023/07/06 00:55:58;;;;;;;9.27;6.65;;;;;;;21.98;66.85;94554.72;4212814;28;20052;-57
2023/07/06 00:58:07;;;;;;;9.73;7.03;;;;;;;21.97;66.81;94545.94;4203175;28;20080;-58
2023/07/06 01:00:11;;;;;;;8.18;6.95;;;;;;;22.00;66.99;94547.31;4211506;28;20255;-59
2023/07/06 01:02:16;;;;;;;10.13;6.85;;;;;;;21.96;67.18;94546.16;4209283;28;20082;-58
2023/07/06 01:04:19;;;;;;;9.90;7.35;;;;;;;21.82;67.33;94546.41;4210954;28;20054;-58
2023/07/06 01:06:42;;;;;;;8.20;7.40;;;;;;;21.70;68.37;94547.44;4206320;28;20044;-56
2023/07/06 01:08:46;;;;;;;11.75;7.13;;;;;;;21.55;68.64;94537.22;4211238;28;20477;-57
2023/07/06 01:10:49;;;;;;;8.63;7.00;;;;;;;21.43;69.12;94531.91;4212817;28;20436;-57
2023/07/06 01:12:50;;;;;;;8.33;6.97;;;;;;;21.37;69.11;94533.59;4210303;28;20075;-58
2023/07/06 01:14:52;;;;;;;10.68;7.35;;;;;;;21.36;69.24;94528.50;4210811;28;20052;-57
2023/07/06 01:16:59;;;;;;;;;;;;;;;21.22;69.74;94531.38;4206313;28;20052;-55
2023/07/06 01:19:20;;;;;;;8.50;6.40;;;;;;;21.02;70.42;94537.03;4199847;28;19920;-61
2023/07/06 01:21:48;;;;;;;8.10;6.90;;;;;;;20.94;70.85;94528.53;4211497;28;20050;-56
2023/07/06 01:24:14;;;;;;;8.82;7.70;;;;;;;21.07;70.49;94531.00;4208331;28;20127;-55
2023/07/06 01:26:37;;;;;;;8.50;7.57;;;;;;;21.20;70.24;94522.00;4210724;28;20448;-55
2023/07/06 01:29:16;;;;;;;9.40;7.47;;;;;;;21.33;69.65;94531.63;4204427;28;20076;-59
2023/07/06 01:31:31;;;;;;;8.13;7.32;;;;;;;21.45;69.29;94521.84;4212109;28;20274;-57
2023/07/06 01:33:38;;;;;;;8.50;7.30;;;;;;;21.51;69.36;94528.91;4206618;28;20058;-59
2023/07/06 01:35:50;;;;;;;9.80;7.93;;;;;;;21.55;69.16;94527.38;4205377;28;20052;-59
2023/07/06 01:37:51;;;;;;;9.70;7.78;;;;;;;21.56;68.97;94526.34;4200655;28;20044;-60
2023/07/06 01:39:53;;;;;;;9.23;6.93;;;;;;;21.59;69.00;94525.06;4202117;28;20048;-59
2023/07/06 01:42:12;;;;;;;8.20;7.40;;;;;;;21.63;68.72;94520.91;4211591;28;20048;-59
2023/07/06 01:44:14;;;;;;;9.15;7.43;;;;;;;21.66;68.94;94526.59;4211913;28;20456;-59
2023/07/06 01:46:16;;;;;;;8.97;7.33;;;;;;;21.71;68.77;94527.75;4211303;28;20522;-58
2023/07/06 01:48:20;;;;;;;8.68;7.50;;;;;;;21.74;68.51;94516.59;4210046;28;20071;-57
2023/07/06 01:50:31;;;;;;;8.23;7.25;;;;;;;21.73;68.56;94526.47;4210799;28;20414;-57
2023/07/06 01:53:00;;;;;;;8.57;7.53;;;;;;;21.73;68.39;94525.66;4211181;28;20048;-58
2023/07/06 01:55:26;;;;;;;7.95;6.85;;;;;;;21.74;68.46;94532.59;4201920;28;20105;-58
2023/07/06 01:57:35;;;;;;;9.43;7.45;;;;;;;21.71;68.61;94533.09;4197947;28;20049;-59
2023/07/06 01:59:57;;;;;;;8.30;7.15;;;;;;;21.70;68.72;94532.25;4210534;28;20060;-59
2023/07/06 02:02:01;;;;;;;8.07;7.10;;;;;;;21.72;68.21;94521.38;4211190;28;20044;-56
2023/07/06 02:04:06;;;;;;;8.60;7.15;;;;;;;21.70;68.34;94524.25;4208374;28;20044;-58
2023/07/06 02:06:10;;;;;;;8.13;7.13;;;;;;;21.72;68.27;94532.03;4217798;28;20109;-58
2023/07/06 02:08:12;;;;;;;7.60;6.80;;;;;;;21.72;68.78;94532.03;4203645;28;20506;-57
2023/07/06 02:10:15;;;;;;;8.75;7.53;;;;;;;21.74;68.28;94529.94;4210543;28;20059;-59
2023/07/06 02:12:18;;;;;;;;;;;;;;;21.76;68.32;94530.53;4208958;28;20497;-58
2023/07/06 02:14:20;;;;;;;9.80;7.40;;;;;;;21.78;68.15;94533.78;4208104;28;19920;-59
2023/07/06 02:18:42;;;;;;;9.35;7.38;;;;;;;21.73;68.32;94531.00;4211416;28;20495;-57
2023/07/06 02:20:47;;;;;;;9.02;7.40;;;;;;;21.71;68.69;94520.56;4210350;28;20058;-55
2023/07/06 02:22:49;;;;;;;9.45;7.53;;;;;;;21.71;68.73;94523.22;4211637;28;20072;-57
2023/07/06 02:24:50;;;;;;;11.15;8.15;;;;;;;21.70;68.65;94520.78;4209897;28;20040;-59
2023/07/06 02:26:53;;;;;;;10.70;7.60;;;;;;;21.66;68.73;94521.25;4197163;28;20048;-59
2023/07/06 02:28:55;;;;;;;10.55;7.85;;;;;;;21.63;69.13;94519.03;4211136;28;20450;-58
2023/07/06 02:30:57;;;;;;;11.00;8.00;;;;;;;21.47;69.63;94525.88;4211387;28;20079;-58
2023/07/06 02:32:59;;;;;;;16.33;10.80;;;;;;;20.98;71.18;94517.22;4210326;28;20054;-59
2023/07/06 02:35:02;;;;;;;16.38;11.95;;;;;;;20.72;72.04;94523.72;4209809;28;20093;-58
2023/07/06 02:37:04;;;;;;;14.27;12.70;;;;;;;20.59;72.89;94526.56;4204105;28;20083;-59
2023/07/06 02:39:06;;;;;;;17.13;13.77;;;;;;;20.43;73.58;94523.47;4195947;28;20666;-58
2023/07/06 02:41:07;;;;;;;20.90;14.48;;;;;;;20.45;73.60;94515.25;4196635;28;20384;-57
2023/07/06 02:43:09;;;;;;;22.10;14.90;;;;;;;20.43;73.25;94512.84;4211497;28;20044;-59
2023/07/06 02:45:11;;;;;;;18.25;13.20;;;;;;;20.41;73.21;94509.59;4203995;28;20048;-57
2023/07/06 02:47:13;;;;;;;18.77;14.07;;;;;;;20.44;73.40;94508.31;4207246;28;20071;-61
2023/07/06 02:49:18;;;;;;;21.35;14.75;;;;;;;20.40;73.31;94507.16;4208960;28;20090;-60
2023/07/06 02:51:22;;;;;;;20.05;15.30;;;;;;;20.35;73.91;94509.66;4209035;28;20159;-58
2023/07/06 02:53:23;;;;;;;;;;;;;;;20.25;73.92;94510.19;4211466;28;20582;-59
2023/07/06 02:55:29;;;;;;;17.55;13.20;;;;;;;20.07;74.67;94516.34;4210826;28;19920;-60
2023/07/06 02:57:31;;;;;;;18.42;15.35;;;;;;;20.12;75.21;94513.00;4209497;28;20051;-59
2023/07/06 02:59:33;;;;;;;22.33;18.37;;;;;;;20.26;74.87;94511.81;4211126;28;20549;-58
2023/07/06 03:01:35;;;;;;;26.30;16.85;;;;;;;20.40;74.36;94510.59;4209459;28;20050;-58
2023/07/06 03:03:37;;;;;;;20.20;14.27;;;;;;;20.45;73.21;94516.06;4209607;28;20051;-59
2023/07/06 03:05:39;;;;;;;16.02;13.15;;;;;;;20.14;73.76;94514.41;4209579;28;20368;-59
2023/07/06 03:07:41;;;;;;;19.88;12.80;;;;;;;20.15;74.20;94510.69;4210011;28;20044;-56
2023/07/06 03:09:43;;;;;;;17.33;13.70;;;;;;;20.15;74.10;94509.91;4208701;28;20055;-58
2023/07/06 03:11:44;;;;;;;18.55;13.27;;;;;;;20.12;73.86;94510.34;4210123;28;20106;-58
2023/07/06 03:13:46;;;;;;;15.57;13.00;;;;;;;19.92;74.71;94502.59;4210513;28;20108;-59
2023/07/06 03:15:51;;;;;;;17.50;14.13;;;;;;;19.90;75.05;94502.03;4198698;28;20048;-58
2023/07/06 03:17:53;;;;;;;14.65;12.90;;;;;;;19.99;75.29;94500.69;4208038;28;20140;-57
2023/07/06 03:19:55;;;;;;;17.27;11.45;;;;;;;20.12;74.51;94499.72;4210276;28;20048;-59
2023/07/06 03:21:58;;;;;;;12.77;11.10;;;;;;;20.28;73.86;94503.59;4209278;28;20056;-59
2023/07/06 03:24:01;;;;;;;13.32;10.15;;;;;;;20.45;73.55;94505.41;4209915;28;20047;-57
2023/07/06 03:26:02;;;;;;;16.30;11.07;;;;;;;20.58;73.00;94499.13;4207127;28;20486;-58
2023/07/06 03:28:04;;;;;;;14.90;10.60;;;;;;;20.66;72.35;94506.81;4210681;28;20091;-57
2023/07/06 03:30:28;;;;;;;13.48;11.20;;;;;;;20.76;72.16;94511.59;4201246;28;20105;-58
2023/07/06 03:32:35;;;;;;;15.68;10.05;;;;;;;20.83;71.52;94501.66;4202064;28;20082;-57
2023/07/06 03:34:37;;;;;;;11.98;9.90;;;;;;;20.87;71.25;94491.38;4210265;28;20123;-57
2023/07/06 03:36:39;;;;;;;12.95;10.48;;;;;;;20.93;71.32;94495.78;4206068;28;20062;-59
2023/07/06 03:38:41;;;;;;;13.23;10.25;;;;;;;21.00;70.80;94506.34;4203070;28;20052;-58
2023/07/06 03:40:48;;;;;;;12.52;9.30;;;;;;;21.05;70.43;94499.25;4206192;28;20063;-56
2023/07/06 03:42:50;;;;;;;13.38;9.77;;;;;;;21.06;70.45;94494.78;4204879;28;20102;-58
2023/07/06 03:44:55;;;;;;;12.13;10.40;;;;;;;21.11;70.49;94500.22;4210778;28;20051;-60
2023/07/06 03:46:58;;;;;;;10.63;9.20;;;;;;;21.17;69.99;94509.94;4209431;28;20105;-58
2023/07/06 03:49:04;;;;;;;19.42;10.43;;;;;;;21.20;69.99;94498.03;4210546;28;20055;-56
2023/07/06 03:51:07;;;;;;;9.68;8.27;;;;;;;21.23;70.07;94503.72;4209221;28;20047;-58
2023/07/06 03:53:10;;;;;;;12.30;8.30;;;;;;;21.22;69.40;94499.41;4209092;28;20043;-58
2023/07/06 03:55:19;;;;;;;11.20;9.07;;;;;;;20.90;70.41;94500.75;4209417;28;20056;-58
2023/07/06 03:57:22;;;;;;;12.00;8.30;;;;;;;20.76;71.33;94506.28;4209176;28;20107;-57
2023/07/06 03:59:23;;;;;;;10.68;8.48;;;;;;;20.74;71.10;94497.69;4196857;28;20044;-57
2023/07/06 04:01:31;;;;;;;11.05;8.15;;;;;;;20.67;71.36;94499.63;4209148;28;20040;-57
2023/07/06 04:03:33;;;;;;;17.35;9.23;;;;;;;20.72;71.67;94514.94;4200384;28;20126;-59
2023/07/06 04:05:38;;;;;;;11.50;8.20;;;;;;;20.81;71.20;94498.41;4201904;28;20048;-59
2023/07/06 04:07:40;;;;;;;10.20;8.40;;;;;;;20.95;70.58;94500.88;4209822;28;20056;-58
2023/07/06 04:09:42;;;;;;;11.10;7.75;;;;;;;21.02;70.33;94504.25;4195855;28;20068;-59
2023/07/06 04:11:43;;;;;;;11.68;7.63;;;;;;;21.09;69.98;94506.81;4209496;28;20050;-59
2023/07/06 04:13:45;;;;;;;9.75;7.43;;;;;;;21.18;69.83;94503.56;4212250;28;20074;-60
2023/07/06 04:15:48;;;;;;;10.45;8.05;;;;;;;21.20;69.41;94509.47;4212433;28;20047;-61
2023/07/06 04:17:53;;;;;;;13.13;8.87;;;;;;;21.17;69.63;94509.16;4212936;28;20044;-60
2023/07/06 04:19:56;;;;;;;10.95;8.63;;;;;;;21.26;69.59;94507.75;4214030;28;20334;-61
2023/07/06 04:21:57;;;;;;;11.43;8.15;;;;;;;21.28;69.41;94503.81;4212547;28;20465;-58
2023/07/06 04:23:59;;;;;;;14.80;9.13;;;;;;;21.37;69.25;94508.81;4213552;28;20117;-59
2023/07/06 04:26:01;;;;;;;12.43;8.40;;;;;;;21.42;68.53;94503.63;4213478;28;20383;-58
2023/07/06 04:28:05;;;;;;;10.00;8.23;;;;;;;21.50;68.61;94505.94;4213012;28;20549;-58
2023/07/06 04:30:09;;;;;;;12.00;8.85;;;;;;;21.60;68.36;94506.19;4212333;28;20056;-60
2023/07/06 04:32:11;;;;;;;11.20;8.50;;;;;;;21.67;67.83;94506.88;4210811;28;20154;-61
2023/07/06 04:34:14;;;;;;;16.17;8.60;;;;;;;21.75;67.92;94507.59;4213660;28;20434;-61
2023/07/06 04:36:17;;;;;;;9.03;7.83;;;;;;;21.82;67.35;94505.59;4201704;28;20057;-59
2023/07/06 04:38:26;;;;;;;9.75;7.68;;;;;;;21.88;67.28;94502.81;4200758;28;20337;-60
2023/07/06 04:40:28;;;;;;;11.13;8.10;;;;;;;21.94;67.24;94498.41;4214069;28;20044;-59
2023/07/06 04:42:30;;;;;;;11.35;7.38;;;;;;;21.97;66.70;94505.91;4213665;28;20064;-58
2023/07/06 04:44:31;;;;;;;9.15;7.18;;;;;;;22.00;66.92;94505.44;4212539;28;20071;-61
2023/07/06 04:46:33;;;;;;;15.70;7.60;;;;;;;22.10;66.92;94504.84;4208832;28;20413;-61
2023/07/06 04:48:35;;;;;;;8.00;7.20;;;;;;;22.24;66.38;94508.09;4205374;28;20048;-59
2023/07/06 04:50:40;;;;;;;11.15;7.25;;;;;;;22.31;65.99;94500.78;4212598;28;20044;-60
2023/07/06 04:52:42;;;;;;;10.02;7.13;;;;;;;22.36;65.76;94497.41;4199935;28;20175;-60
2023/07/06 04:54:43;;;;;;;10.55;7.10;;;;;;;22.41;65.55;94505.47;4200564;28;20478;-61
2023/07/06 04:56:45;;;;;;;10.68;7.38;;;;;;;22.48;64.92;94504.31;4206401;28;20441;-59
2023/07/06 04:58:47;;;;;;;10.73;7.10;;;;;;;22.58;65.46;94510.88;4208299;28;20499;-59
2023/07/06 05:00:50;;;;;;;10.35;7.35;;;;;;;22.60;65.33;94508.78;4212216;28;20077;-58
2023/07/06 05:02:53;;;;;;;8.30;7.40;;;;;;;22.58;65.35;94505.53;4210484;28;20733;-60
2023/07/06 05:04:55;;;;;;;12.45;6.82;;;;;;;22.57;64.99;94515.41;4211001;28;20873;-60
2023/07/06 05:06:56;;;;;;;8.13;6.72;;;;;;;22.13;65.69;94516.91;4212282;28;20525;-53
2023/07/06 05:08:58;;;;;;;8.50;6.65;;;;;;;22.10;66.79;94515.53;4211941;28;20466;-58
2023/07/06 05:11:04;;;;;;;8.10;6.47;;;;;;;22.12;66.14;94517.97;4213065;28;20134;-57
2023/07/06 05:13:07;;;;;;;11.90;6.75;;;;;;;22.13;67.03;94516.91;4213439;28;20055;-57
2023/07/06 05:15:09;;;;;;;14.23;7.15;;;;;;;21.95;66.75;94524.00;4208341;28;20050;-58
2023/07/06 05:17:11;;;;;;;9.20;6.82;;;;;;;21.84;67.70;94522.16;4196242;28;20087;-59
2023/07/06 05:19:15;;;;;;;8.52;6.88;;;;;;;21.43;68.44;94526.59;4197154;28;20049;-59
2023/07/06 05:21:17;;;;;;;9.75;6.95;;;;;;;21.13;70.17;94532.75;4212282;28;20044;-61
2023/07/06 05:23:19;;;;;;;12.02;7.13;;;;;;;21.22;70.20;94527.91;4212786;28;20383;-60
2023/07/06 05:25:21;;;;;;;9.25;7.18;;;;;;;21.00;70.22;94525.78;4211499;28;20052;-59
2023/07/06 05:27:24;;;;;;;7.93;6.95;;;;;;;21.17;70.37;94533.13;4212330;28;20047;-60
2023/07/06 05:29:26;;;;;;;9.45;6.93;;;;;;;21.39;70.06;94531.53;4212788;28;20086;-60
2023/07/06 05:31:28;;;;;;;11.32;6.10;;;;;;;21.69;68.74;94530.63;4211260;28;20048;-60
2023/07/06 05:33:32;;;;;;;11.07;6.82;;;;;;;21.50;68.88;94537.13;4212546;28;20086;-57
2023/07/06 05:35:34;;;;;;;9.32;7.18;;;;;;;21.19;69.94;94531.84;4213215;28;20130;-61
2023/07/06 05:37:36;;;;;;;11.77;7.53;;;;;;;21.12;70.13;94541.78;4212462;28;20047;-59
2023/07/06 05:39:38;;;;;;;11.43;7.47;;;;;;;21.28;70.16;94537.66;4211213;28;20151;-60
2023/07/06 05:41:40;;;;;;;14.38;7.82;;;;;;;21.49;69.55;94539.00;4200118;28;20066;-61
2023/07/06 05:43:41;;;;;;;12.18;8.00;;;;;;;21.72;69.09;94540.03;4211346;28;20052;-61
2023/07/06 05:45:45;;;;;;;11.13;8.07;;;;;;;21.79;68.35;94546.88;4211559;28;20052;-62
2023/07/06 05:47:47;;;;;;;11.45;7.88;;;;;;;21.61;68.95;94545.13;4208720;28;20058;-59
2023/07/06 05:49:49;;;;;;;12.70;7.00;;;;;;;21.24;69.25;94542.63;4211587;28;20063;-59
2023/07/06 05:51:51;;;;;;;11.20;7.95;;;;;;;21.19;70.45;94549.69;4212243;28;20074;-60
2023/07/06 05:53:52;;;;;;;11.45;7.30;;;;;;;21.41;69.71;94549.94;4211696;28;20051;-59
2023/07/06 05:55:54;;;;;;;9.32;6.35;;;;;;;21.64;68.51;94543.88;4210730;28;20143;-60
2023/07/06 05:57:57;;;;;;;9.57;6.65;;;;;;;21.88;67.91;94542.00;4212534;28;20055;-61
2023/07/06 05:59:58;;;;;;;8.38;5.78;;;;;;;22.02;66.83;94542.56;4211257;28;20729;-61
2023/07/06 06:02:00;;;;;;;8.35;6.78;;;;;;;21.80;67.46;94545.00;4210171;28;20052;-59
2023/07/06 06:04:02;;;;;;;10.43;7.22;;;;;;;21.73;68.76;94542.47;4211929;28;20086;-60
2023/07/06 06:06:04;;;;;;;8.25;6.68;;;;;;;21.62;68.15;94544.09;4212640;28;20052;-61
2023/07/06 06:08:05;;;;;;;9.02;6.90;;;;;;;21.19;70.06;94547.03;4210910;28;20101;-59
2023/07/06 06:10:08;;;;;;;9.90;6.95;;;;;;;21.16;70.59;94537.63;4212238;28;20108;-56
2023/07/06 06:12:17;;;;;;;7.80;6.90;;;;;;;21.29;70.46;94544.59;4211971;28;20054;-58
2023/07/06 06:14:20;;;;;;;8.88;7.25;;;;;;;21.65;70.42;94545.47;4211303;28;20054;-62
2023/07/06 06:16:22;;;;;;;9.53;7.53;;;;;;;21.39;70.93;94552.84;4211926;28;20048;-58
2023/07/06 06:18:26;;;;;;;8.00;7.03;;;;;;;21.48;70.67;94558.66;4211647;28;20052;-59
2023/07/06 06:20:28;;;;;;;9.77;7.75;;;;;;;21.49;70.12;94552.31;4210735;28;20139;-60
2023/07/06 06:22:30;;;;;;;11.77;7.25;;;;;;;21.60;69.93;94550.69;4211440;28;20066;-62
2023/07/06 06:24:32;;;;;;;9.75;7.15;;;;;;;21.73;70.38;94542.47;4210875;28;20428;-61
2023/07/06 06:26:35;;;;;;;10.40;7.00;;;;;;;22.00;69.11;94541.97;4212073;28;20055;-57
2023/07/06 06:28:37;;;;;;;9.55;6.95;;;;;;;22.22;67.95;94551.03;4211380;28;20634;-59
2023/07/06 06:30:40;;;;;;;9.13;7.30;;;;;;;22.46;67.56;94543.78;4211526;28;20048;-58
2023/07/06 06:32:42;;;;;;;8.63;7.05;;;;;;;22.69;66.34;94544.72;4212173;28;20047;-59
2023/07/06 06:34:44;;;;;;;7.70;6.85;;;;;;;22.84;65.64;94539.69;4210594;28;20050;-61
2023/07/06 06:36:47;;;;;;;9.82;6.53;;;;;;;22.96;65.31;94539.63;4199024;28;20044;-60
2023/07/06 06:38:49;;;;;;;10.65;6.90;;;;;;;23.02;64.83;94543.25;4203269;28;20044;-61
2023/07/06 06:40:51;;;;;;;8.00;7.05;;;;;;;23.09;64.21;94535.88;4207072;28;20070;-56
2023/07/06 06:42:52;;;;;;;7.57;5.93;;;;;;;23.17;63.55;94538.16;4211095;28;20075;-60
2023/07/06 06:44:57;;;;;;;7.53;6.00;;;;;;;23.29;62.98;94530.88;4211740;28;20044;-57
2023/07/06 06:47:01;;;;;;;7.80;6.30;;;;;;;22.79;64.65;94533.44;4211173;28;20056;-60
2023/07/06 06:49:06;;;;;;;8.88;6.18;;;;;;;22.94;64.18;94539.06;4210436;28;20055;-62
2023/07/06 06:51:10;;;;;;;15.10;6.85;;;;;;;23.18;63.57;94534.41;4209161;28;20055;-62
2023/07/06 06:53:12;;;;;;;7.05;5.68;;;;;;;23.46;63.22;94522.03;4212315;28;20575;-58
2023/07/06 06:55:14;;;;;;;7.97;6.28;;;;;;;23.70;62.50;94528.84;4211618;28;20052;-60
2023/07/06 06:57:16;;;;;;;10.93;6.00;;;;;;;23.86;61.75;94521.06;4211557;28;20135;-62
2023/07/06 06:59:18;;;;;;;8.25;6.03;;;;;;;23.99;61.50;94525.25;4210668;28;20413;-64
2023/07/06 07:01:20;;;;;;;10.38;5.90;;;;;;;24.11;60.66;94528.63;4209835;28;20097;-62
2023/07/06 07:03:22;;;;;;;5.85;5.25;;;;;;;24.20;59.51;94523.66;4211000;28;20056;-58
2023/07/06 07:05:25;;;;;;;7.32;5.25;;;;;;;24.29;59.42;94514.94;4210396;28;20083;-61
2023/07/06 07:07:27;;;;;;;10.47;5.57;;;;;;;24.33;59.07;94517.94;4210362;28;20047;-61
2023/07/06 07:09:29;;;;;;;10.45;6.32;;;;;;;24.43;59.10;94514.56;4209224;28;20292;-57
2023/07/06 07:11:31;;;;;;;10.45;5.30;;;;;;;24.51;58.96;94516.84;4198925;28;20070;-61
2023/07/06 07:13:36;;;;;;;5.80;5.18;;;;;;;24.62;58.15;94507.06;4211530;28;20075;-61
2023/07/06 07:15:37;;;;;;;7.50;5.93;;;;;;;24.65;58.75;94511.88;4199726;28;20439;-59
2023/07/06 07:17:39;;;;;;;8.45;6.40;;;;;;;24.66;58.96;94513.53;4208174;28;20055;-61
2023/07/06 07:19:41;;;;;;;7.65;5.55;;;;;;;24.14;59.71;94519.31;4211414;28;20159;-59
2023/07/06 07:21:43;;;;;;;6.32;5.72;;;;;;;23.93;60.31;94519.03;4210331;28;20093;-60
2023/07/06 07:23:48;;;;;;;7.95;6.10;;;;;;;24.12;60.03;94509.66;4210079;28;20245;-60
2023/07/06 07:25:50;;;;;;;10.38;5.78;;;;;;;24.02;59.27;94514.06;4211516;28;20044;-61
2023/07/06 07:27:54;;;;;;;6.85;5.50;;;;;;;23.96;59.45;94518.50;4211501;28;20482;-60
2023/07/06 07:29:58;;;;;;;8.95;5.60;;;;;;;23.85;60.18;94514.09;4211758;28;20052;-61
2023/07/06 07:32:02;;;;;;;7.43;6.05;;;;;;;23.72;60.40;94515.22;4210195;28;20116;-59
2023/07/06 07:34:05;;;;;;;7.88;6.30;;;;;;;23.84;59.94;94518.63;4209141;28;20048;-60
2023/07/06 07:36:07;;;;;;;12.10;7.90;;;;;;;23.90;59.26;94516.84;4199962;28;20113;-61
2023/07/06 07:38:09;;;;;;;7.82;5.53;;;;;;;23.71;59.50;94514.41;4196059;28;20080;-60
2023/07/06 07:40:16;;;;;;;9.23;5.40;;;;;;;23.81;59.35;94515.63;4194806;28;20048;-60
2023/07/06 07:42:19;;;;;;;8.30;5.00;;;;;;;24.10;58.85;94510.97;4204900;28;20044;-58
2023/07/06 07:44:21;;;;;;;8.07;5.95;;;;;;;24.43;58.84;94507.34;4210778;28;20058;-60
2023/07/06 07:46:24;;;;;;;21.83;12.18;;;;;;;24.52;58.47;94515.75;4201860;28;20051;-59
2023/07/06 07:48:26;;;;;;;28.38;13.30;;;;;;;24.33;58.54;94512.59;4208857;28;20401;-63
2023/07/06 07:50:32;;;;;;;12.00;7.95;;;;;;;24.23;58.81;94515.13;4210326;28;20136;-60
2023/07/06 07:52:34;;;;;;;11.55;5.75;;;;;;;24.44;59.12;94513.53;4211438;28;20052;-61
2023/07/06 07:54:35;;;;;;;6.60;5.47;;;;;;;24.61;58.52;94514.28;4207507;28;20116;-61
2023/07/06 07:56:37;;;;;;;8.27;5.50;;;;;;;24.86;57.79;94511.03;4200984;28;20467;-59
2023/07/06 07:58:40;;;;;;;8.15;5.60;;;;;;;24.94;56.22;94509.78;4211030;28;20135;-62
2023/07/06 08:00:51;;;;;;;6.80;5.10;;;;;;;25.17;55.98;94507.84;4210374;28;20486;-59
2023/07/06 08:02:54;;;;;;;5.90;4.95;;;;;;;25.41;55.34;94505.69;4210298;28;20097;-62
2023/07/06 08:04:57;;;;;;;8.73;5.65;;;;;;;25.65;55.08;94514.97;4209986;28;20562;-59
2023/07/06 08:06:58;;;;;;;6.40;5.35;;;;;;;25.50;54.49;94506.81;4209630;28;20131;-59
2023/07/06 08:09:06;;;;;;;7.65;5.93;;;;;;;25.43;54.54;94504.34;4210712;28;20055;-58
2023/07/06 08:11:12;;;;;;;8.38;5.80;;;;;;;25.50;55.05;94507.59;4210132;28;20095;-60
2023/07/06 08:13:14;;;;;;;6.90;5.78;;;;;;;25.72;54.92;94509.38;4211000;28;20046;-62
2023/07/06 08:15:16;;;;;;;7.85;6.25;;;;;;;25.64;54.16;94512.53;4210933;28;20127;-60
2023/07/06 08:17:18;;;;;;;11.77;6.18;;;;;;;25.57;54.80;94515.44;4210274;28;20048;-60
2023/07/06 08:19:20;;;;;;;10.07;5.90;;;;;;;25.53;54.57;94506.28;4209835;28;20122;-61
2023/07/06 08:21:42;;;;;;;9.00;6.18;;;;;;;25.16;55.65;94512.41;4210924;28;20044;-61
2023/07/06 08:24:03;;;;;;;6.47;5.85;;;;;;;25.14;55.84;94511.84;4198652;28;20121;-60
2023/07/06 08:26:06;;;;;;;7.43;5.78;;;;;;;25.14;56.25;94514.53;4210129;28;20044;-61
2023/07/06 08:28:12;;;;;;;9.82;6.20;;;;;;;25.21;55.98;94504.44;4210053;28;20125;-59
2023/07/06 08:30:14;;;;;;;11.30;6.72;;;;;;;25.10;55.30;94511.56;4209845;28;20054;-62
2023/07/06 08:32:19;;;;;;;11.73;6.60;;;;;;;25.23;56.05;94502.31;4208844;28;20035;-58
2023/07/06 08:34:21;;;;;;;10.23;6.35;;;;;;;25.48;55.66;94504.38;4210990;28;20094;-60
2023/07/06 08:36:23;;;;;;;8.35;6.45;;;;;;;25.62;54.70;94503.94;4208769;28;20432;-61
2023/07/06 08:38:24;;;;;;;12.05;7.10;;;;;;;25.81;54.81;94509.69;4193653;28;20049;-60
2023/07/06 08:40:28;;;;;;;16.67;9.75;;;;;;;25.99;54.68;94513.88;4202328;28;20063;-61
2023/07/06 08:42:31;;;;;;;12.15;6.15;;;;;;;26.12;53.95;94506.16;4197252;28;20044;-60
2023/07/06 08:44:32;;;;;;;10.20;6.22;;;;;;;26.41;53.29;94507.63;4207592;28;20139;-60
2023/07/06 08:46:38;;;;;;;9.50;5.65;;;;;;;26.65;53.18;94511.50;4198170;28;20470;-61
2023/07/06 08:48:41;;;;;;;8.50;6.35;;;;;;;26.85;53.03;94496.50;4200752;28;20050;-63
2023/07/06 08:50:51;;;;;;;6.68;5.97;;;;;;;26.84;53.27;94503.75;4199161;28;20419;-61
2023/07/06 08:52:53;;;;;;;6.70;5.75;;;;;;;26.91;52.79;94504.31;4208622;28;20048;-61
2023/07/06 08:54:56;;;;;;;8.23;5.72;;;;;;;26.86;51.54;94506.16;4210179;28;20052;-59
2023/07/06 08:56:58;;;;;;;8.70;6.40;;;;;;;26.82;51.63;94505.88;4210078;28;20402;-61
2023/07/06 08:59:01;;;;;;;7.20;6.40;;;;;;;26.78;51.80;94494.06;4210763;28;20089;-61
2023/07/06 09:01:10;;;;;;;7.47;6.68;;;;;;;26.88;50.75;94494.06;4225310;28;20572;-60
2023/07/06 09:03:13;;;;;;;8.95;6.60;;;;;;;26.82;51.11;94494.34;4203662;28;20089;-60
2023/07/06 09:05:15;;;;;;;9.55;6.30;;;;;;;26.95;51.11;94499.19;4213500;28;20061;-61
2023/07/06 09:07:24;;;;;;;10.20;6.60;;;;;;;27.12;50.52;94498.94;4204729;28;20052;-61
2023/07/06 09:09:28;;;;;;;9.43;6.53;;;;;;;27.22;50.19;94501.69;4209259;28;20505;-60
2023/07/06 09:11:31;;;;;;;9.93;6.75;;;;;;;27.46;49.94;94501.16;4212729;28;20048;-62
2023/07/06 09:13:43;;;;;;;11.05;7.18;;;;;;;27.38;48.85;94499.78;4212091;28;20040;-60
2023/07/06 09:15:45;;;;;;;10.23;6.55;;;;;;;26.62;51.26;94516.59;4208045;28;20449;-60
2023/07/06 09:17:51;;;;;;;11.98;6.93;;;;;;;25.92;53.34;94506.03;4205700;28;20052;-61
2023/07/06 09:19:53;;;;;;;11.70;6.68;;;;;;;26.01;53.69;94507.19;4206381;28;20151;-59
2023/07/06 09:21:55;;;;;;;11.18;6.90;;;;;;;26.22;52.75;94507.25;4208536;28;20406;-60
2023/07/06 09:24:00;;;;;;;9.10;6.88;;;;;;;26.35;52.30;94507.59;4211005;28;20071;-61
2023/07/06 09:26:06;;;;;;;17.15;14.18;;;;;;;26.31;52.32;94500.34;4203363;28;20048;-61
2023/07/06 09:28:29;;;;;;;11.48;6.60;;;;;;;26.40;52.94;94503.31;4208353;28;20044;-60
2023/07/06 09:30:33;;;;;;;13.35;7.25;;;;;;;26.18;52.30;94495.44;4209903;28;20131;-58
2023/07/06 09:32:35;;;;;;;9.48;7.10;;;;;;;25.83;52.96;94494.94;4209393;28;20054;-61
2023/07/06 09:34:41;;;;;;;8.93;7.15;;;;;;;25.88;52.89;94491.50;4202736;28;20062;-63
2023/07/06 09:36:47;;;;;;;10.90;7.78;;;;;;;26.08;53.17;94494.31;4212714;28;20044;-60
2023/07/06 09:38:50;;;;;;;12.52;8.43;;;;;;;26.41;52.61;94503.03;4204522;28;20049;-62
2023/07/06 09:40:52;;;;;;;11.50;7.35;;;;;;;26.70;52.02;94492.69;4199184;28;20048;-60
2023/07/06 09:42:54;;;;;;;13.45;6.78;;;;;;;26.94;51.32;94493.00;4210355;28;20075;-59